createdAt,value
2022-08-11T00:03:43.268Z,65.11
2022-08-11T00:08:51.044Z,66.58
2022-08-11T00:13:53.929Z,67.60
2022-08-11T00:18:59.188Z,68.09
2022-08-11T00:24:03.451Z,68.58
2022-08-11T00:29:11.088Z,69.01
2022-08-11T00:34:16.196Z,69.33
2022-08-11T00:39:28.998Z,70.59
2022-08-11T00:45:01.589Z,70.69
2022-08-11T00:50:37.980Z,71.79
2022-08-11T00:56:12.473Z,72.05
2022-08-11T01:01:18.031Z,72.43
2022-08-11T01:06:58.068Z,73.62
2022-08-11T01:12:06.761Z,73.61
2022-08-11T01:17:27.226Z,74.51
2022-08-11T01:23:07.346Z,75.12
2022-08-11T01:28:47.407Z,75.88
2022-08-11T01:34:11.781Z,76.46
2022-08-11T01:39:18.542Z,77.59
2022-08-11T01:44:39.126Z,77.86
2022-08-11T01:50:09.373Z,78.24
2022-08-11T01:55:16.987Z,78.43
2022-08-11T02:00:24.074Z,79.07
2022-08-11T02:05:29.355Z,78.07
2022-08-11T02:11:20.107Z,72.15
2022-08-11T02:16:24.566Z,63.26
2022-08-11T02:22:00.758Z,55.38
2022-08-11T02:27:18.770Z,46.38
2022-08-11T02:32:48.047Z,42.19
2022-08-11T02:38:14.573Z,36.89
2022-08-11T02:43:50.864Z,32.26
2022-08-11T02:49:24.004Z,30.41
2022-08-11T02:54:52.353Z,29.72
2022-08-11T03:00:07.466Z,33.01
2022-08-11T03:05:12.156Z,38.95
2022-08-11T03:10:17.489Z,42.48
2022-08-11T03:15:46.339Z,46.52
2022-08-11T03:20:59.272Z,49.30
2022-08-11T03:26:04.367Z,50.45
2022-08-11T03:31:34.220Z,51.42
2022-08-11T03:37:15.036Z,52.56
2022-08-11T03:42:36.242Z,52.98
2022-08-11T03:47:55.305Z,54.41
2022-08-11T03:53:28.188Z,54.78
2022-08-11T03:58:46.657Z,57.36
2022-08-11T04:04:04.147Z,59.77
2022-08-11T04:09:46.790Z,59.77
2022-08-11T04:15:32.533Z,61.73
2022-08-11T04:21:23.485Z,61.98
2022-08-11T04:26:56.866Z,61.77
2022-08-11T04:32:45.758Z,62.22
2022-08-11T04:38:08.541Z,62.80
2022-08-11T04:44:02.129Z,63.00
2022-08-11T04:49:57.969Z,62.58
2022-08-11T04:55:44.937Z,62.00
2022-08-11T05:01:37.620Z,61.68
2022-08-11T05:07:16.669Z,61.27
2022-08-11T05:12:44.151Z,61.08
2022-08-11T05:18:39.662Z,60.44
2022-08-11T05:24:09.053Z,59.46
2022-08-11T05:29:58.793Z,58.60
2022-08-11T05:35:05.216Z,58.11
2022-08-11T05:40:30.687Z,57.84
2022-08-11T05:46:03.885Z,57.18
2022-08-11T05:51:29.901Z,56.88
2022-08-11T05:56:35.154Z,56.25
2022-08-11T06:01:38.059Z,55.57
2022-08-11T06:07:10.939Z,54.26
2022-08-11T06:12:20.343Z,54.32
2022-08-11T06:17:39.074Z,53.74
2022-08-11T06:22:44.559Z,52.93
2022-08-11T06:27:58.668Z,52.13
2022-08-11T06:33:04.377Z,51.65
2022-08-11T06:38:32.669Z,50.14
2022-08-11T06:44:06.898Z,49.00
2022-08-11T06:49:30.788Z,48.59
2022-08-11T06:54:41.457Z,47.88
2022-08-11T07:00:04.622Z,46.78
2022-08-11T07:05:29.155Z,46.57
2022-08-11T07:11:11.142Z,46.70
2022-08-11T07:16:24.346Z,46.36
2022-08-11T07:22:01.393Z,46.32
2022-08-11T07:27:33.605Z,45.12
2022-08-11T07:32:48.757Z,44.16
2022-08-11T07:38:02.594Z,42.42
2022-08-11T07:43:07.461Z,40.96
2022-08-11T07:48:30.597Z,41.07
2022-08-11T07:53:34.539Z,40.95
2022-08-11T07:59:16.067Z,38.89
2022-08-11T08:04:39.195Z,38.19
2022-08-11T08:10:01.969Z,37.92
2022-08-11T08:15:29.154Z,38.32
2022-08-11T08:20:37.329Z,37.91
2022-08-11T08:26:28.751Z,36.69
2022-08-11T08:31:32.322Z,35.54
2022-08-11T08:36:35.532Z,36.34
2022-08-11T08:41:39.409Z,35.17
2022-08-11T08:46:46.397Z,35.22
2022-08-11T08:52:19.558Z,34.88
2022-08-11T08:57:20.233Z,34.39
2022-08-11T09:02:34.295Z,34.36
2022-08-11T09:07:40.577Z,33.29
2022-08-11T09:12:44.131Z,34.33
2022-08-11T09:17:50.608Z,33.90
2022-08-11T09:28:41.771Z,34.07
2022-08-11T09:33:45.351Z,34.12
2022-08-11T09:39:07.389Z,34.20
2022-08-11T09:44:29.110Z,33.40
2022-08-11T09:49:32.630Z,32.90
2022-08-11T09:54:36.938Z,31.90
2022-08-11T09:59:41.415Z,31.75
2022-08-11T10:04:46.745Z,31.50
2022-08-11T10:09:59.062Z,31.88
2022-08-11T10:15:26.611Z,32.67
2022-08-11T10:20:32.524Z,33.29
2022-08-11T10:25:55.258Z,32.75
2022-08-11T10:31:18.125Z,34.28
2022-08-11T10:36:21.322Z,34.12
2022-08-11T10:42:06.597Z,33.44
2022-08-11T10:47:27.339Z,33.43
2022-08-11T10:52:48.680Z,32.95
2022-08-11T10:58:09.852Z,31.95
2022-08-11T11:03:22.851Z,31.60
2022-08-11T11:09:08.109Z,31.70
2022-08-11T11:14:31.625Z,31.62
2022-08-11T11:19:40.049Z,31.63
2022-08-11T11:25:08.758Z,30.54
2022-08-11T11:30:15.338Z,31.15
2022-08-11T11:35:44.752Z,31.13
2022-08-11T11:41:08.129Z,30.60
2022-08-11T11:46:11.318Z,30.16
2022-08-11T11:51:14.216Z,30.16
2022-08-11T11:56:17.564Z,31.06
2022-08-11T12:01:24.218Z,31.18
2022-08-11T12:06:28.090Z,30.82
2022-08-11T12:11:50.355Z,30.60
2022-08-11T12:16:55.005Z,30.18
2022-08-11T12:22:17.324Z,30.32
2022-08-11T12:27:24.272Z,29.86
2022-08-11T12:32:32.050Z,29.68
2022-08-11T12:37:41.475Z,29.39
2022-08-11T12:43:20.732Z,29.11
2022-08-11T12:48:59.794Z,28.76
2022-08-11T12:54:14.963Z,29.58
2022-08-11T12:59:37.004Z,28.72
2022-08-11T13:04:54.261Z,30.26
2022-08-11T13:09:58.141Z,31.03
2022-08-11T13:15:02.463Z,30.93
2022-08-11T13:20:09.110Z,30.62
2022-08-11T13:25:16.705Z,30.42
2022-08-11T13:30:41.209Z,30.88
2022-08-11T13:35:49.726Z,30.04
2022-08-11T13:40:56.613Z,30.42
2022-08-11T13:46:18.282Z,31.10
2022-08-11T13:51:34.827Z,30.83
2022-08-11T13:56:44.209Z,31.27
2022-08-11T14:02:19.972Z,31.01
2022-08-11T14:07:19.305Z,31.16
2022-08-11T14:12:48.262Z,31.73
2022-08-11T14:18:07.643Z,31.58
2022-08-11T14:23:14.483Z,32.17
2022-08-11T14:28:31.203Z,32.25
2022-08-11T14:34:00.684Z,32.17
2022-08-11T14:39:04.281Z,32.59
2022-08-11T14:44:28.017Z,32.71
2022-08-11T14:49:38.086Z,32.97
2022-08-11T14:55:21.215Z,33.23
2022-08-11T15:00:24.838Z,34.06
2022-08-11T15:05:28.618Z,33.74
2022-08-11T15:10:31.618Z,33.21
2022-08-11T15:15:54.182Z,33.56
2022-08-11T15:21:15.136Z,33.45
2022-08-11T15:26:43.059Z,33.37
2022-08-11T15:32:06.544Z,33.41
2022-08-11T15:37:27.170Z,33.40
2022-08-11T15:42:50.860Z,33.70
2022-08-11T15:48:05.089Z,34.44
2022-08-11T15:53:20.448Z,35.35
2022-08-11T15:58:44.871Z,36.03
2022-08-11T16:04:13.324Z,35.70
2022-08-11T16:09:20.365Z,36.54
2022-08-11T16:14:43.705Z,36.95
2022-08-11T16:19:50.202Z,37.26
2022-08-11T16:27:06.117Z,37.41
2022-08-11T16:30:16.102Z,38.32
2022-08-11T16:35:45.584Z,38.48
2022-08-11T16:40:51.246Z,39.38
2022-08-11T16:46:14.855Z,39.76
2022-08-11T16:51:20.922Z,39.99
2022-08-11T16:56:28.481Z,40.55
2022-08-11T17:01:33.285Z,41.13
2022-08-11T17:07:00.040Z,42.08
2022-08-11T17:12:23.392Z,42.80
2022-08-11T17:17:34.289Z,43.18
2022-08-11T17:22:57.469Z,43.55
2022-08-11T17:28:03.282Z,44.18
2022-08-11T17:33:24.667Z,45.77
2022-08-11T17:38:28.901Z,45.79
2022-08-11T17:43:51.342Z,47.53
2022-08-11T17:48:54.142Z,49.17
2022-08-11T17:54:24.001Z,49.14
2022-08-11T17:59:49.076Z,49.02
2022-08-11T18:04:54.413Z,49.69
2022-08-11T18:10:16.730Z,50.56
2022-08-11T18:15:37.972Z,51.36
2022-08-11T18:21:10.945Z,52.34
2022-08-11T18:26:37.473Z,53.41
2022-08-11T18:32:06.284Z,54.20
2022-08-11T18:37:34.058Z,55.15
2022-08-11T18:42:57.774Z,55.50
2022-08-11T18:48:33.186Z,55.74
2022-08-11T18:53:59.661Z,55.84
2022-08-11T18:59:24.673Z,55.71
2022-08-11T19:04:47.011Z,55.76
2022-08-11T19:10:09.760Z,56.12
2022-08-11T19:15:32.856Z,56.92
2022-08-11T19:20:55.938Z,57.40
2022-08-11T19:26:19.120Z,57.67
2022-08-11T19:31:44.652Z,58.02
2022-08-11T19:37:07.177Z,58.20
2022-08-11T19:42:29.437Z,58.31
2022-08-11T19:48:03.154Z,58.53
2022-08-11T19:53:32.864Z,58.98
2022-08-11T19:58:56.214Z,59.23
2022-08-11T20:04:17.575Z,59.20
2022-08-11T20:10:05.493Z,59.37
2022-08-11T20:15:22.362Z,59.63
2022-08-11T20:20:46.605Z,59.99
2022-08-11T20:26:29.773Z,60.50
2022-08-11T20:31:51.348Z,60.64
2022-08-11T20:37:14.225Z,61.25
2022-08-11T20:42:39.069Z,62.25
2022-08-11T20:48:02.873Z,62.72
2022-08-11T20:53:26.313Z,63.54
2022-08-11T21:04:33.081Z,66.00
2022-08-11T21:09:58.564Z,67.15
2022-08-11T21:15:39.092Z,68.59
2022-08-11T21:21:09.025Z,69.51
2022-08-11T21:26:40.669Z,70.22
2022-08-11T21:32:03.524Z,70.50
2022-08-11T21:37:26.299Z,71.05
2022-08-11T21:42:51.310Z,71.65
2022-08-11T21:48:15.002Z,72.13
2022-08-11T21:53:38.225Z,72.65
2022-08-11T21:59:00.124Z,73.24
2022-08-11T22:04:29.606Z,73.93
2022-08-11T22:09:51.168Z,74.57
2022-08-11T22:15:13.026Z,75.29
2022-08-11T22:20:34.121Z,75.44
2022-08-11T22:25:59.684Z,75.87
2022-08-11T22:31:25.279Z,76.46
2022-08-11T22:36:47.394Z,76.67
2022-08-11T22:42:08.673Z,77.54
2022-08-11T22:47:40.236Z,77.84
2022-08-11T22:53:02.267Z,78.09
2022-08-11T22:58:25.387Z,78.63
2022-08-11T23:03:47.694Z,78.83
2022-08-11T23:09:09.501Z,79.63
2022-08-11T23:14:32.502Z,80.00
2022-08-11T23:20:06.936Z,80.43
2022-08-11T23:25:37.002Z,80.49
2022-08-11T23:30:59.666Z,80.89
2022-08-11T23:36:33.994Z,81.13
2022-08-11T23:42:03.355Z,81.34
2022-08-11T23:47:24.870Z,81.19
2022-08-11T23:52:46.889Z,81.64
2022-08-11T23:58:08.398Z,81.79
